createdAt,value
2022-08-29T00:01:12.717Z,100853.34
2022-08-29T00:03:42.081Z,100847.16
2022-08-29T00:06:10.618Z,100845.50
2022-08-29T00:08:37.447Z,100839.16
2022-08-29T00:11:06.666Z,100837.69
2022-08-29T00:13:45.605Z,100837.72
2022-08-29T00:16:12.704Z,100838.34
2022-08-29T00:18:40.056Z,100840.84
2022-08-29T00:21:14.503Z,100836.25
2022-08-29T00:23:43.954Z,100844.94
2022-08-29T00:26:10.776Z,100841.00
2022-08-29T00:28:41.376Z,100836.81
2022-08-29T00:31:12.978Z,100838.81
2022-08-29T00:33:39.768Z,100837.34
2022-08-29T00:36:07.208Z,100842.22
2022-08-29T00:38:35.473Z,100851.25
2022-08-29T00:41:02.417Z,100838.72
2022-08-29T00:43:33.372Z,100839.75
2022-08-29T00:46:18.675Z,100846.16
2022-08-29T00:48:48.204Z,100853.19
2022-08-29T00:51:19.073Z,100839.38
2022-08-29T00:53:48.444Z,100839.25
2022-08-29T00:56:16.168Z,100841.94
2022-08-29T00:58:50.073Z,100839.88
2022-08-29T01:01:17.371Z,100845.06
2022-08-29T01:03:44.211Z,100839.47
2022-08-29T01:06:19.725Z,100851.69
2022-08-29T01:08:46.753Z,100842.66
2022-08-29T01:11:34.737Z,100846.72
2022-08-29T01:14:02.673Z,100846.53
2022-08-29T01:16:30.759Z,100843.91
2022-08-29T01:19:01.069Z,100842.41
2022-08-29T01:22:15.558Z,100838.47
2022-08-29T01:24:53.077Z,100850.03
2022-08-29T01:27:25.512Z,100847.38
2022-08-29T01:29:52.386Z,100856.66
2022-08-29T01:32:19.313Z,100855.22
2022-08-29T01:34:46.127Z,100855.00
2022-08-29T01:37:15.272Z,100865.50
2022-08-29T01:39:43.959Z,100858.50
2022-08-29T01:42:20.997Z,100860.34
2022-08-29T01:44:52.908Z,100853.28
2022-08-29T01:47:20.213Z,100857.63
2022-08-29T01:49:47.052Z,100863.22
2022-08-29T01:52:13.932Z,100868.34
2022-08-29T01:54:47.769Z,100874.19
2022-08-29T01:57:16.219Z,100866.53
2022-08-29T01:59:43.774Z,100863.75
2022-08-29T02:02:18.127Z,100871.50
2022-08-29T02:04:47.103Z,100874.94
2022-08-29T02:07:17.573Z,100864.66
2022-08-29T02:09:45.546Z,100869.16
2022-08-29T02:12:13.773Z,100863.69
2022-08-29T02:14:40.837Z,100864.28
2022-08-29T02:17:08.419Z,100870.72
2022-08-29T02:19:36.319Z,100865.41
2022-08-29T02:22:03.678Z,100861.47
2022-08-29T02:24:38.005Z,100865.78
2022-08-29T02:27:04.736Z,100868.88
2022-08-29T02:29:37.168Z,100864.13
2022-08-29T02:32:07.118Z,100866.44
2022-08-29T02:34:35.213Z,100870.63
2022-08-29T02:37:02.533Z,100856.97
2022-08-29T02:39:29.536Z,100859.47
2022-08-29T02:41:56.675Z,100854.53
2022-08-29T02:44:23.532Z,100857.59
2022-08-29T02:46:50.688Z,100855.75
2022-08-29T02:49:17.501Z,100859.47
2022-08-29T02:51:45.087Z,100856.56
2022-08-29T02:54:14.983Z,100856.97
2022-08-29T02:56:42.048Z,100862.16
2022-08-29T02:59:08.823Z,100865.69
2022-08-29T03:01:36.320Z,100865.03
2022-08-29T03:04:03.343Z,100870.41
2022-08-29T03:06:30.003Z,100870.22
2022-08-29T03:08:56.730Z,100867.34
2022-08-29T03:11:24.094Z,100876.03
2022-08-29T03:13:50.738Z,100869.59
2022-08-29T03:16:18.323Z,100863.63
2022-08-29T03:18:52.880Z,100857.19
2022-08-29T03:21:22.347Z,100862.78
2022-08-29T03:23:50.255Z,100854.94
2022-08-29T03:26:17.765Z,100853.91
2022-08-29T03:28:44.740Z,100859.84
2022-08-29T03:31:18.153Z,100858.81
2022-08-29T03:33:45.021Z,100861.94
2022-08-29T03:36:13.913Z,100865.66
2022-08-29T03:38:44.015Z,100860.28
2022-08-29T03:41:13.463Z,100862.56
2022-08-29T03:43:42.590Z,100861.13
2022-08-29T03:46:11.637Z,100864.63
2022-08-29T03:48:38.372Z,100863.59
2022-08-29T03:51:05.167Z,100870.84
2022-08-29T03:53:32.961Z,100872.50
2022-08-29T03:55:59.862Z,100867.53
2022-08-29T03:58:30.057Z,100869.97
2022-08-29T04:00:56.744Z,100866.41
2022-08-29T04:03:28.352Z,100866.22
2022-08-29T04:05:59.237Z,100863.97
2022-08-29T04:08:26.104Z,100877.88
2022-08-29T04:10:52.775Z,100871.88
2022-08-29T04:13:19.478Z,100866.28
2022-08-29T04:15:46.244Z,100866.72
2022-08-29T04:18:13.057Z,100862.97
2022-08-29T04:20:45.105Z,100865.28
2022-08-29T04:23:15.166Z,100870.44
2022-08-29T04:26:07.269Z,100864.03
2022-08-29T04:28:44.046Z,100873.53
2022-08-29T04:31:26.120Z,100869.19
2022-08-29T04:34:07.117Z,100870.66
2022-08-29T04:36:46.556Z,100877.91
2022-08-29T04:39:14.210Z,100878.31
2022-08-29T04:41:41.241Z,100877.25
2022-08-29T04:44:17.466Z,100880.38
2022-08-29T04:46:44.255Z,100870.88
2022-08-29T04:49:13.645Z,100864.41
2022-08-29T04:51:51.901Z,100866.09
2022-08-29T04:54:23.280Z,100870.44
2022-08-29T04:56:50.039Z,100873.53
2022-08-29T04:59:20.571Z,100869.22
2022-08-29T05:02:10.443Z,100868.97
2022-08-29T05:04:56.431Z,100867.53
2022-08-29T05:07:43.461Z,100880.56
2022-08-29T05:10:26.820Z,100878.91
2022-08-29T05:13:04.271Z,100875.41
2022-08-29T05:15:44.565Z,100882.66
2022-08-29T05:18:16.096Z,100881.41
2022-08-29T05:20:52.925Z,100880.16
2022-08-29T05:23:45.740Z,100883.88
2022-08-29T05:26:15.085Z,100886.38
2022-08-29T05:29:23.862Z,100883.47
2022-08-29T05:32:08.337Z,100881.22
2022-08-29T05:34:53.340Z,100883.88
2022-08-29T05:37:54.280Z,100895.69
2022-08-29T05:40:29.098Z,100895.69
2022-08-29T05:43:09.195Z,100896.50
2022-08-29T05:45:53.093Z,100893.19
2022-08-29T05:48:33.955Z,100903.13
2022-08-29T05:51:13.999Z,100900.03
2022-08-29T05:53:47.728Z,100900.66
2022-08-29T05:56:30.691Z,100894.19
2022-08-29T05:59:13.783Z,100897.69
2022-08-29T06:01:52.907Z,100892.69
2022-08-29T06:07:08.444Z,100889.81
2022-08-29T06:09:54.011Z,100896.59
2022-08-29T06:12:28.710Z,100902.94
2022-08-29T06:14:57.518Z,100904.09
2022-08-29T06:17:24.461Z,100909.28
2022-08-29T06:20:06.406Z,100907.91
2022-08-29T06:22:46.100Z,100906.44
2022-08-29T06:25:49.504Z,100902.38
2022-08-29T06:28:23.842Z,100911.75
2022-08-29T06:31:34.675Z,100909.28
2022-08-29T06:34:05.342Z,100908.59
2022-08-29T06:36:38.163Z,100910.69
2022-08-29T06:39:09.817Z,100911.41
2022-08-29T06:41:46.206Z,100912.19
2022-08-29T06:44:24.105Z,100908.31
2022-08-29T06:46:56.309Z,100909.81
2022-08-29T06:49:36.493Z,100910.38
2022-08-29T06:52:15.407Z,100901.88
2022-08-29T06:54:52.873Z,100904.94
2022-08-29T06:57:20.620Z,100901.16
2022-08-29T06:59:52.280Z,100899.13
2022-08-29T07:02:21.444Z,100893.59
2022-08-29T07:22:56.919Z,100900.53
2022-08-29T07:25:40.179Z,100901.91
2022-08-29T07:37:27.160Z,100899.44
2022-08-29T07:41:21.425Z,100901.88
2022-08-29T07:52:17.275Z,100892.47
2022-08-29T07:55:15.775Z,100895.13
2022-08-29T07:58:51.147Z,100902.09
2022-08-29T08:03:23.294Z,100901.03
2022-08-29T08:04:52.804Z,100905.31
2022-08-29T08:07:45.849Z,100906.16
2022-08-29T08:17:16.679Z,100907.00
2022-08-29T08:23:00.783Z,100913.88
2022-08-29T08:26:02.702Z,100908.34
2022-08-29T08:35:53.981Z,100916.34
2022-08-29T08:55:31.298Z,100907.72
2022-08-29T09:01:36.574Z,100915.50
2022-08-29T09:08:26.799Z,100912.16
2022-08-29T09:11:32.282Z,100910.13
2022-08-29T09:15:01.758Z,100901.28
2022-08-29T09:24:57.601Z,100910.47
2022-08-29T09:27:58.448Z,100905.34
2022-08-29T09:35:08.408Z,100917.41
2022-08-29T09:38:57.865Z,100915.63
2022-08-29T09:45:56.820Z,100921.03
2022-08-29T09:49:10.063Z,100910.97
2022-08-29T09:54:56.687Z,100910.88
2022-08-29T09:57:26.957Z,100904.94
2022-08-29T10:10:54.345Z,100914.41
2022-08-29T10:14:12.984Z,100923.56
2022-08-29T10:17:30.234Z,100924.41
2022-08-29T10:20:30.924Z,100923.22
2022-08-29T10:23:34.254Z,100917.59
2022-08-29T10:26:21.189Z,100918.28
2022-08-29T10:32:16.572Z,100926.97
2022-08-29T10:35:03.745Z,100921.56
2022-08-29T10:38:01.558Z,100927.53
2022-08-29T10:41:16.368Z,100926.69
2022-08-29T10:44:11.806Z,100930.97
2022-08-29T10:48:01.133Z,100923.97
2022-08-29T10:51:17.405Z,100916.38
2022-08-29T10:54:40.781Z,100910.47
2022-08-29T10:57:27.399Z,100922.13
2022-08-29T11:00:28.192Z,100909.53
2022-08-29T11:03:57.462Z,100912.91
2022-08-29T11:06:39.948Z,100909.91
2022-08-29T11:23:27.121Z,100892.06
2022-08-29T11:26:32.897Z,100896.47
2022-08-29T11:29:41.531Z,100898.38
2022-08-29T11:34:37.210Z,100899.63
2022-08-29T11:40:06.599Z,100907.09
2022-08-29T11:42:52.838Z,100899.88
2022-08-29T11:45:29.669Z,100904.59
2022-08-29T11:48:18.048Z,100900.72
2022-08-29T11:50:49.265Z,100906.75
2022-08-29T11:53:39.484Z,100900.13
2022-08-29T11:56:36.047Z,100900.97
2022-08-29T11:59:16.083Z,100894.00
2022-08-29T12:02:03.638Z,100891.38
2022-08-29T12:05:10.832Z,100895.78
2022-08-29T12:08:36.403Z,100888.13
2022-08-29T12:11:27.364Z,100875.97
2022-08-29T12:13:58.513Z,100876.72
2022-08-29T12:16:47.098Z,100871.34
2022-08-29T12:19:55.822Z,100872.06
2022-08-29T12:22:56.271Z,100863.63
2022-08-29T12:25:44.873Z,100858.28
2022-08-29T12:28:31.124Z,100853.47
2022-08-29T12:31:08.212Z,100847.50
2022-08-29T12:34:14.549Z,100853.78
2022-08-29T12:37:14.928Z,100842.47
2022-08-29T12:39:53.256Z,100844.22
2022-08-29T12:43:17.872Z,100843.91
2022-08-29T12:45:47.402Z,100847.75
2022-08-29T12:48:34.042Z,100833.00
2022-08-29T12:51:13.933Z,100833.66
2022-08-29T12:54:01.505Z,100831.00
2022-08-29T12:56:46.190Z,100826.44
2022-08-29T12:59:22.811Z,100828.59
2022-08-29T13:01:57.013Z,100826.72
2022-08-29T13:04:46.981Z,100812.78
2022-08-29T13:10:00.470Z,100801.91
2022-08-29T13:12:43.501Z,100800.53
2022-08-29T13:15:33.106Z,100803.25
2022-08-29T13:18:15.142Z,100802.69
2022-08-29T13:21:07.747Z,100803.81
2022-08-29T13:24:01.674Z,100798.91
2022-08-29T13:26:41.682Z,100796.16
2022-08-29T13:29:27.033Z,100790.69
2022-08-29T13:32:52.732Z,100799.19
2022-08-29T13:35:38.466Z,100799.16
2022-08-29T13:38:56.703Z,100797.25
2022-08-29T13:41:30.215Z,100790.41
2022-08-29T13:44:21.087Z,100787.69
2022-08-29T13:47:14.750Z,100778.53
2022-08-29T13:49:53.153Z,100779.31
2022-08-29T13:53:03.178Z,100764.38
2022-08-29T13:58:21.601Z,100777.81
2022-08-29T14:00:59.626Z,100776.53
2022-08-29T14:06:45.565Z,100782.31
2022-08-29T14:09:28.466Z,100765.25
2022-08-29T14:12:33.830Z,100767.16
2022-08-29T14:15:09.642Z,100766.25
2022-08-29T14:17:42.689Z,100770.25
2022-08-29T14:20:26.460Z,100762.94
2022-08-29T14:23:13.475Z,100760.13
2022-08-29T14:25:45.922Z,100766.06
2022-08-29T14:28:16.075Z,100760.66
2022-08-29T14:30:51.922Z,100768.31
2022-08-29T14:33:26.471Z,100767.66
2022-08-29T14:36:07.420Z,100766.72
2022-08-29T14:38:34.449Z,100764.81
2022-08-29T14:41:07.211Z,100766.44
2022-08-29T14:43:52.808Z,100761.16
2022-08-29T14:46:23.463Z,100759.75
2022-08-29T14:48:50.507Z,100749.47
2022-08-29T14:51:17.284Z,100754.91
2022-08-29T14:53:54.920Z,100750.66
2022-08-29T14:56:50.321Z,100751.38
2022-08-29T14:59:21.850Z,100746.94
2022-08-29T15:01:54.246Z,100746.44
2022-08-29T15:04:46.277Z,100747.50
2022-08-29T15:07:13.517Z,100751.38
2022-08-29T15:09:42.063Z,100750.00
2022-08-29T15:12:16.557Z,100747.75
2022-08-29T15:14:44.611Z,100743.19
2022-08-29T15:17:13.752Z,100744.81
2022-08-29T15:20:34.294Z,100745.56
2022-08-29T15:22:34.219Z,100745.59
2022-08-29T15:25:02.165Z,100749.94
2022-08-29T15:27:31.590Z,100747.13
2022-08-29T15:30:04.410Z,100748.66
2022-08-29T15:32:32.598Z,100745.84
2022-08-29T15:34:59.436Z,100744.53
2022-08-29T15:37:37.742Z,100741.03
2022-08-29T15:40:10.960Z,100752.00
2022-08-29T15:42:42.110Z,100748.78
2022-08-29T15:45:14.702Z,100742.41
2022-08-29T15:48:03.096Z,100747.84
2022-08-29T15:50:49.184Z,100742.06
2022-08-29T15:54:11.171Z,100744.25
2022-08-29T15:56:51.431Z,100741.53
2022-08-29T16:02:37.910Z,100735.72
2022-08-29T16:05:11.808Z,100736.38
2022-08-29T16:07:42.811Z,100728.47
2022-08-29T16:10:11.547Z,100727.38
2022-08-29T16:12:42.101Z,100723.97
2022-08-29T16:15:10.097Z,100723.00
2022-08-29T16:17:39.685Z,100720.03
2022-08-29T16:20:13.767Z,100717.19
2022-08-29T16:22:47.319Z,100721.06
2022-08-29T16:25:43.026Z,100721.75
2022-08-29T16:28:15.776Z,100720.94
2022-08-29T16:30:53.803Z,100725.66
2022-08-29T16:33:23.337Z,100722.13
2022-08-29T16:35:50.307Z,100720.78
2022-08-29T16:38:19.953Z,100723.25
2022-08-29T16:40:46.980Z,100720.22
2022-08-29T16:43:16.914Z,100719.44
2022-08-29T16:45:43.859Z,100711.25
2022-08-29T16:48:15.606Z,100720.25
2022-08-29T16:50:42.707Z,100718.63
2022-08-29T16:53:09.363Z,100703.34
2022-08-29T16:55:36.117Z,100707.69
2022-08-29T16:58:22.786Z,100704.69
2022-08-29T17:00:55.589Z,100703.09
2022-08-29T17:03:22.339Z,100704.16
2022-08-29T17:05:49.463Z,100707.97
2022-08-29T17:08:16.640Z,100707.97
2022-08-29T17:10:43.493Z,100706.09
2022-08-29T17:13:12.765Z,100708.50
2022-08-29T17:15:40.284Z,100714.19
2022-08-29T17:18:07.323Z,100709.03
2022-08-29T17:20:37.599Z,100705.19
2022-08-29T17:23:10.082Z,100704.88
2022-08-29T17:25:40.607Z,100707.31
2022-08-29T17:28:19.426Z,100700.47
2022-08-29T17:30:48.050Z,100711.59
2022-08-29T17:33:22.362Z,100714.84
2022-08-29T17:35:49.329Z,100717.03
2022-08-29T17:38:16.865Z,100713.69
2022-08-29T17:40:49.748Z,100722.34
2022-08-29T17:43:22.080Z,100724.41
2022-08-29T17:45:59.497Z,100729.69
2022-08-29T17:48:31.929Z,100729.69
2022-08-29T17:50:59.435Z,100727.09
2022-08-29T17:53:34.384Z,100724.63
2022-08-29T17:56:44.830Z,100727.50
2022-08-29T17:59:13.090Z,100726.03
2022-08-29T18:01:49.478Z,100728.94
2022-08-29T18:04:17.710Z,100727.56
2022-08-29T18:06:47.205Z,100736.44
2022-08-29T18:09:14.814Z,100737.81
2022-08-29T18:11:45.301Z,100736.09
2022-08-29T18:14:12.327Z,100742.78
2022-08-29T18:16:55.560Z,100744.28
2022-08-29T18:19:27.002Z,100745.22
2022-08-29T18:21:54.155Z,100742.84
2022-08-29T18:24:24.066Z,100746.00
2022-08-29T18:26:51.296Z,100746.81
2022-08-29T18:29:19.240Z,100746.16
2022-08-29T18:31:46.014Z,100754.69
2022-08-29T18:34:12.993Z,100757.81
2022-08-29T18:36:44.369Z,100763.03
2022-08-29T18:39:15.409Z,100773.75
2022-08-29T18:41:42.243Z,100773.81
2022-08-29T18:44:10.068Z,100776.31
2022-08-29T18:46:37.019Z,100777.88
2022-08-29T18:49:03.702Z,100781.84
2022-08-29T18:51:33.838Z,100784.34
2022-08-29T18:54:00.613Z,100783.41
2022-08-29T18:56:27.618Z,100784.38
2022-08-29T18:58:58.542Z,100787.19
2022-08-29T19:01:28.641Z,100789.53
2022-08-29T19:04:02.582Z,100798.00
2022-08-29T19:06:29.311Z,100796.81
2022-08-29T19:08:56.647Z,100807.31
2022-08-29T19:11:23.691Z,100803.53
2022-08-29T19:13:52.630Z,100802.25
2022-08-29T19:16:21.206Z,100809.91
2022-08-29T19:18:49.362Z,100814.38
2022-08-29T19:21:16.323Z,100810.38
2022-08-29T19:23:52.104Z,100808.34
2022-08-29T19:26:25.911Z,100812.84
2022-08-29T19:28:56.641Z,100809.06
2022-08-29T19:31:27.832Z,100818.25
2022-08-29T19:33:57.422Z,100816.59
2022-08-29T19:36:25.059Z,100819.78
2022-08-29T19:38:51.866Z,100823.31
2022-08-29T19:41:18.742Z,100816.47
2022-08-29T19:43:45.624Z,100827.06
2022-08-29T19:46:20.863Z,100835.13
2022-08-29T19:48:51.280Z,100833.13
2022-08-29T19:51:19.918Z,100835.94
2022-08-29T19:53:50.988Z,100829.72
2022-08-29T19:56:18.237Z,100834.44
2022-08-29T19:58:45.309Z,100833.25
2022-08-29T20:01:19.356Z,100833.84
2022-08-29T20:03:46.253Z,100832.53
2022-08-29T20:06:15.875Z,100829.13
2022-08-29T20:08:47.993Z,100833.34
2022-08-29T20:11:21.151Z,100839.94
2022-08-29T20:13:51.149Z,100845.59
2022-08-29T20:16:22.715Z,100843.13
2022-08-29T20:18:50.351Z,100846.66
2022-08-29T20:21:19.286Z,100851.56
2022-08-29T20:23:52.838Z,100841.72
2022-08-29T20:26:24.000Z,100857.59
2022-08-29T20:28:52.057Z,100864.66
2022-08-29T20:31:19.721Z,100859.84
2022-08-29T20:33:48.252Z,100866.16
2022-08-29T20:36:38.268Z,100873.34
2022-08-29T20:39:06.908Z,100870.22
2022-08-29T20:41:35.679Z,100878.38
2022-08-29T20:44:07.019Z,100874.13
2022-08-29T20:46:39.509Z,100882.97
2022-08-29T20:49:10.046Z,100887.34
2022-08-29T20:51:37.457Z,100887.97
2022-08-29T20:54:04.308Z,100889.38
2022-08-29T20:56:31.101Z,100884.94
2022-08-29T20:58:57.996Z,100883.91
2022-08-29T21:01:27.349Z,100886.81
2022-08-29T21:04:12.784Z,100895.69
2022-08-29T21:06:39.445Z,100890.06
2022-08-29T21:09:06.525Z,100895.72
2022-08-29T21:11:33.403Z,100897.28
2022-08-29T21:14:00.531Z,100900.38
2022-08-29T21:16:29.549Z,100898.84
2022-08-29T21:18:56.279Z,100898.72
2022-08-29T21:21:24.849Z,100897.72
2022-08-29T21:23:52.035Z,100898.56
2022-08-29T21:26:18.924Z,100896.16
2022-08-29T21:28:47.247Z,100902.75
2022-08-29T21:31:16.724Z,100901.31
2022-08-29T21:33:46.439Z,100900.28
2022-08-29T21:36:20.798Z,100899.22
2022-08-29T21:38:48.902Z,100903.22
2022-08-29T21:41:18.020Z,100905.00
2022-08-29T21:43:47.483Z,100906.44
2022-08-29T21:46:19.814Z,100902.47
2022-08-29T21:48:47.267Z,100911.31
2022-08-29T21:51:17.942Z,100912.56
2022-08-29T21:53:47.375Z,100909.06
2022-08-29T21:56:14.094Z,100911.75
2022-08-29T21:58:41.035Z,100916.22
2022-08-29T22:01:11.261Z,100913.63
2022-08-29T22:03:38.893Z,100926.41
2022-08-29T22:06:07.080Z,100919.44
2022-08-29T22:08:34.226Z,100928.00
2022-08-29T22:11:01.332Z,100923.56
2022-08-29T22:13:28.011Z,100925.06
2022-08-29T22:16:13.359Z,100925.56
2022-08-29T22:18:40.045Z,100922.72
2022-08-29T22:21:06.766Z,100922.34
2022-08-29T22:23:33.442Z,100926.13
2022-08-29T22:26:00.112Z,100925.13
2022-08-29T22:28:27.190Z,100931.19
2022-08-29T22:30:55.265Z,100940.16
2022-08-29T22:33:22.337Z,100937.28
2022-08-29T22:35:49.012Z,100940.00
2022-08-29T22:38:15.688Z,100940.03
2022-08-29T22:40:44.360Z,100944.22
2022-08-29T22:43:18.407Z,100947.31
2022-08-29T22:45:45.090Z,100939.00
2022-08-29T22:48:13.157Z,100947.94
2022-08-29T22:50:45.893Z,100941.06
2022-08-29T22:53:26.005Z,100940.47
2022-08-29T22:55:52.769Z,100934.88
2022-08-29T22:58:19.390Z,100934.28
2022-08-29T23:00:46.132Z,100941.94
2022-08-29T23:03:12.951Z,100940.28
2022-08-29T23:05:39.724Z,100937.16
2022-08-29T23:08:06.431Z,100941.41
2022-08-29T23:10:34.038Z,100938.91
2022-08-29T23:13:00.653Z,100944.28
2022-08-29T23:15:27.366Z,100943.66
2022-08-29T23:17:54.040Z,100949.91
2022-08-29T23:20:20.690Z,100948.13
2022-08-29T23:22:47.311Z,100947.94
2022-08-29T23:25:15.829Z,100948.22
2022-08-29T23:27:42.424Z,100956.09
2022-08-29T23:30:11.479Z,100959.63
2022-08-29T23:32:38.363Z,100957.59
2022-08-29T23:35:09.519Z,100955.31
2022-08-29T23:37:36.169Z,100957.59
2022-08-29T23:40:03.783Z,100955.75
2022-08-29T23:42:31.409Z,100954.13
2022-08-29T23:44:58.055Z,100945.38
2022-08-29T23:47:24.730Z,100956.38
2022-08-29T23:49:51.420Z,100955.16
2022-08-29T23:52:18.132Z,100961.22
2022-08-29T23:54:44.807Z,100961.59
2022-08-29T23:57:11.749Z,100956.38
2022-08-29T23:59:57.240Z,100955.16
